createdAt,value
2017-04-14T00:00:22.094Z,16.75
2017-04-14T00:01:21.914Z,15.88
2017-04-14T00:02:21.694Z,16.28
2017-04-14T00:03:21.494Z,17.18
2017-04-14T00:04:21.290Z,17.20
2017-04-14T00:05:21.045Z,15.28
2017-04-14T00:06:20.830Z,17.08
2017-04-14T00:07:20.658Z,16.03
2017-04-14T00:08:21.210Z,15.28
2017-04-14T00:09:20.999Z,16.87
2017-04-14T00:10:20.782Z,17.83
2017-04-14T00:11:21.318Z,13.98
2017-04-14T00:12:21.101Z,17.72
2017-04-14T00:13:21.162Z,16.93
2017-04-14T00:14:20.934Z,17.72
2017-04-14T00:15:20.770Z,16.65
2017-04-14T00:16:20.541Z,16.55
2017-04-14T00:17:20.357Z,16.50
2017-04-14T00:18:20.317Z,16.23
2017-04-14T00:19:20.830Z,15.12
2017-04-14T00:20:21.353Z,16.18
2017-04-14T00:21:21.165Z,17.35
2017-04-14T00:22:21.758Z,16.10
2017-04-14T00:23:21.534Z,15.00
2017-04-14T00:24:21.890Z,15.73
2017-04-14T00:25:21.705Z,17.22
2017-04-14T00:26:22.318Z,19.78
2017-04-14T00:27:22.997Z,19.17
2017-04-14T00:28:22.790Z,19.35
2017-04-14T00:29:22.553Z,18.38
2017-04-14T00:30:23.677Z,16.02
2017-04-14T00:31:24.213Z,18.42
2017-04-14T00:32:24.038Z,19.42
2017-04-14T00:33:23.813Z,18.37
2017-04-14T00:34:23.625Z,18.97
2017-04-14T00:35:23.418Z,18.75
2017-04-14T00:36:23.222Z,17.00
2017-04-14T00:37:23.781Z,18.78
2017-04-14T00:38:23.599Z,18.67
2017-04-14T00:39:23.382Z,20.15
2017-04-14T00:40:23.161Z,18.25
2017-04-14T00:41:22.969Z,20.83
2017-04-14T00:42:22.745Z,21.32
2017-04-14T00:43:22.585Z,20.57
2017-04-14T00:44:22.493Z,20.68
2017-04-14T00:45:22.225Z,19.73
2017-04-14T00:46:22.057Z,19.32
2017-04-14T00:47:22.577Z,20.03
2017-04-14T00:48:22.410Z,19.97
2017-04-14T00:49:22.206Z,20.53
2017-04-14T00:50:21.965Z,20.05
2017-04-14T00:51:22.493Z,17.98
2017-04-14T00:52:22.295Z,18.05
2017-04-14T00:53:22.093Z,21.30
2017-04-14T00:54:21.873Z,20.73
2017-04-14T00:55:21.717Z,19.42
2017-04-14T00:56:21.517Z,19.33
2017-04-14T00:57:21.297Z,19.15
2017-04-14T00:58:21.886Z,21.57
2017-04-14T00:59:21.653Z,19.13
2017-04-14T01:00:21.469Z,22.88
2017-04-14T01:01:21.285Z,22.00
2017-04-14T01:02:21.041Z,21.37
2017-04-14T01:03:20.838Z,18.87
2017-04-14T01:04:20.657Z,19.55
2017-04-14T01:05:20.461Z,18.93
2017-04-14T01:06:20.285Z,18.83
2017-04-14T01:07:20.081Z,19.88
2017-04-14T01:08:20.206Z,19.25
2017-04-14T01:09:19.962Z,16.15
2017-04-14T01:10:19.785Z,18.32
2017-04-14T01:11:19.592Z,19.47
2017-04-14T01:12:19.385Z,19.72
2017-04-14T01:13:19.146Z,21.15
2017-04-14T01:14:19.701Z,19.22
2017-04-14T01:15:19.501Z,18.67
2017-04-14T01:16:19.282Z,18.17
2017-04-14T01:17:19.061Z,17.65
2017-04-14T01:18:18.833Z,17.43
2017-04-14T01:19:18.992Z,16.70
2017-04-14T01:20:18.808Z,18.58
2017-04-14T01:21:18.581Z,18.48
2017-04-14T01:22:19.097Z,17.85
2017-04-14T01:23:19.672Z,16.70
2017-04-14T01:24:19.525Z,18.02
2017-04-14T01:25:20.036Z,19.10
2017-04-14T01:26:19.813Z,18.28
2017-04-14T01:27:19.573Z,18.92
2017-04-14T01:28:19.369Z,18.72
2017-04-14T01:29:19.233Z,18.45
2017-04-14T01:30:19.013Z,19.68
2017-04-14T01:31:18.801Z,17.47
2017-04-14T01:32:18.600Z,16.02
2017-04-14T01:33:18.418Z,19.10
2017-04-14T01:34:18.309Z,18.57
2017-04-14T01:35:18.848Z,17.63
2017-04-14T01:36:18.648Z,16.12
2017-04-14T01:37:18.472Z,18.10
2017-04-14T01:38:18.272Z,16.78
2017-04-14T01:39:18.805Z,17.42
2017-04-14T01:40:19.308Z,17.75
2017-04-14T01:41:19.304Z,17.12
2017-04-14T01:42:19.044Z,17.37
2017-04-14T01:43:18.825Z,17.60
2017-04-14T01:44:19.448Z,19.43
2017-04-14T01:45:19.976Z,17.28
2017-04-14T01:46:19.824Z,18.93
2017-04-14T01:47:19.608Z,19.08
2017-04-14T01:48:19.400Z,18.83
2017-04-14T01:49:19.236Z,19.65
2017-04-14T01:50:19.088Z,18.95
2017-04-14T01:51:19.612Z,19.42
2017-04-14T01:52:20.140Z,19.25
2017-04-14T01:53:19.920Z,19.92
2017-04-14T01:54:20.448Z,20.83
2017-04-14T01:55:20.240Z,18.23
2017-04-14T01:56:20.772Z,19.65
2017-04-14T01:57:20.544Z,20.02
2017-04-14T01:58:20.324Z,18.20
2017-04-14T01:59:20.120Z,18.05
2017-04-14T02:00:19.929Z,18.53
2017-04-14T02:01:19.731Z,18.93
2017-04-14T02:02:19.776Z,17.83
2017-04-14T02:03:20.340Z,18.28
2017-04-14T02:04:20.832Z,18.10
2017-04-14T02:05:20.640Z,18.13
2017-04-14T02:06:20.487Z,18.85
2017-04-14T02:07:20.268Z,20.42
2017-04-14T02:08:20.172Z,19.30
2017-04-14T02:09:19.940Z,20.42
2017-04-14T02:10:19.727Z,19.82
2017-04-14T02:11:19.547Z,20.25
2017-04-14T02:12:19.368Z,17.35
2017-04-14T02:13:19.159Z,18.72
2017-04-14T02:14:18.942Z,17.42
2017-04-14T02:15:18.779Z,16.17
2017-04-14T02:16:18.571Z,18.30
2017-04-14T02:17:18.399Z,18.58
2017-04-14T02:18:18.203Z,17.87
2017-04-14T02:19:17.999Z,17.55
2017-04-14T02:20:17.799Z,16.85
2017-04-14T02:21:17.599Z,18.23
2017-04-14T02:22:17.347Z,16.52
2017-04-14T02:23:17.943Z,16.67
2017-04-14T02:24:17.827Z,16.67
2017-04-14T02:25:17.647Z,17.22
2017-04-14T02:26:17.399Z,19.08
2017-04-14T02:27:17.179Z,20.32
2017-04-14T02:28:16.939Z,23.17
2017-04-14T02:29:16.723Z,20.93
2017-04-14T02:30:16.523Z,23.35
2017-04-14T02:31:16.333Z,23.38
2017-04-14T02:32:16.112Z,19.93
2017-04-14T02:33:15.847Z,18.82
2017-04-14T02:34:15.667Z,21.80
2017-04-14T02:35:15.451Z,20.85
2017-04-14T02:36:15.256Z,19.37
2017-04-14T02:37:15.079Z,17.73
2017-04-14T02:38:14.851Z,18.13
2017-04-14T02:39:14.639Z,18.25
2017-04-14T02:40:14.419Z,19.22
2017-04-14T02:41:14.179Z,17.83
2017-04-14T02:42:14.683Z,19.07
2017-04-14T02:43:14.463Z,19.13
2017-04-14T02:44:14.611Z,15.02
2017-04-14T02:45:15.163Z,16.45
2017-04-14T02:46:15.151Z,16.85
2017-04-14T02:47:14.967Z,18.43
2017-04-14T02:48:14.795Z,18.78
2017-04-14T02:49:15.163Z,18.73
2017-04-14T02:50:14.915Z,19.72
2017-04-14T02:51:14.703Z,18.75
2017-04-14T02:52:14.975Z,16.03
2017-04-14T02:53:15.527Z,20.30
2017-04-14T02:54:15.311Z,20.63
2017-04-14T02:55:15.810Z,19.73
2017-04-14T02:56:16.363Z,18.83
2017-04-14T02:57:16.159Z,19.50
2017-04-14T02:58:15.955Z,18.37
2017-04-14T02:59:16.471Z,19.38
2017-04-14T03:00:16.246Z,16.97
2017-04-14T03:01:16.803Z,18.02
2017-04-14T03:02:16.555Z,18.58
2017-04-14T03:03:16.318Z,17.62
2017-04-14T03:04:16.075Z,17.37
2017-04-14T03:05:16.642Z,18.23
2017-04-14T03:06:16.430Z,18.87
2017-04-14T03:07:16.219Z,19.00
2017-04-14T03:08:16.035Z,18.15
2017-04-14T03:09:15.799Z,16.68
2017-04-14T03:10:16.319Z,18.83
2017-04-14T03:11:16.119Z,17.97
2017-04-14T03:12:15.977Z,18.52
2017-04-14T03:13:15.736Z,17.93
2017-04-14T03:14:15.531Z,19.45
2017-04-14T03:15:16.031Z,18.52
2017-04-14T03:16:16.563Z,17.83
2017-04-14T03:17:17.420Z,18.77
2017-04-14T03:18:17.191Z,20.23
2017-04-14T03:19:17.707Z,19.48
2017-04-14T03:20:18.243Z,18.97
2017-04-14T03:21:17.243Z,17.78
2017-04-14T03:22:17.047Z,18.23
2017-04-14T03:23:16.823Z,18.67
2017-04-14T03:24:16.620Z,17.60
2017-04-14T03:25:17.151Z,18.78
2017-04-14T03:26:16.923Z,18.33
2017-04-14T03:27:16.711Z,17.62
2017-04-14T03:28:16.446Z,20.70
2017-04-14T03:29:16.956Z,18.05
2017-04-14T03:30:17.547Z,18.37
2017-04-14T03:31:17.291Z,19.85
2017-04-14T03:32:17.074Z,17.77
2017-04-14T03:33:17.591Z,17.78
2017-04-14T03:34:18.099Z,17.85
2017-04-14T03:35:18.689Z,18.87
2017-04-14T03:36:18.475Z,17.05
2017-04-14T03:37:18.263Z,17.88
2017-04-14T03:38:18.103Z,18.10
2017-04-14T03:39:17.906Z,19.53
2017-04-14T03:40:17.691Z,17.22
2017-04-14T03:41:17.474Z,18.25
2017-04-14T03:42:17.259Z,19.13
2017-04-14T03:43:17.051Z,18.05
2017-04-14T03:44:17.559Z,18.10
2017-04-14T03:45:18.130Z,18.58
2017-04-14T03:46:17.887Z,17.58
2017-04-14T03:47:18.430Z,19.43
2017-04-14T03:48:18.459Z,19.23
2017-04-14T03:49:18.266Z,18.27
2017-04-14T03:50:18.355Z,20.53
2017-04-14T03:51:18.115Z,19.03
2017-04-14T03:52:18.638Z,19.97
2017-04-14T03:53:19.179Z,19.30
2017-04-14T03:54:19.024Z,19.72
2017-04-14T03:55:18.815Z,17.65
2017-04-14T03:56:18.558Z,18.47
2017-04-14T03:57:19.063Z,21.15
2017-04-14T03:58:18.891Z,19.38
2017-04-14T03:59:18.614Z,18.45
2017-04-14T04:00:18.395Z,19.78
2017-04-14T04:01:18.155Z,19.38
2017-04-14T04:02:17.947Z,20.68
2017-04-14T04:03:17.770Z,19.92
2017-04-14T04:04:17.619Z,18.18
2017-04-14T04:05:18.155Z,20.37
2017-04-14T04:06:17.890Z,19.95
2017-04-14T04:07:17.711Z,18.95
2017-04-14T04:08:17.467Z,20.17
2017-04-14T04:09:17.246Z,15.82
2017-04-14T04:10:17.022Z,15.80
2017-04-14T04:11:16.806Z,18.43
2017-04-14T04:12:16.566Z,16.57
2017-04-14T04:13:16.754Z,17.57
2017-04-14T04:14:16.602Z,16.85
2017-04-14T04:15:16.402Z,18.03
2017-04-14T04:16:16.354Z,17.78
2017-04-14T04:17:17.267Z,18.65
2017-04-14T04:18:17.023Z,17.53
2017-04-14T04:19:17.234Z,18.25
2017-04-14T04:20:17.018Z,17.40
2017-04-14T04:21:16.806Z,17.90
2017-04-14T04:22:16.562Z,17.02
2017-04-14T04:23:16.347Z,16.67
2017-04-14T04:24:16.162Z,18.88
2017-04-14T04:25:15.954Z,16.67
2017-04-14T04:26:15.718Z,17.58
2017-04-14T04:27:15.482Z,17.05
2017-04-14T04:28:16.406Z,18.40
2017-04-14T04:29:16.238Z,18.30
2017-04-14T04:30:16.062Z,16.72
2017-04-14T04:31:17.618Z,16.80
2017-04-14T04:32:23.006Z,17.92
2017-04-14T04:33:28.346Z,18.17
2017-04-14T04:34:28.123Z,17.40
2017-04-14T04:35:28.740Z,18.78
2017-04-14T04:36:28.502Z,18.55
2017-04-14T04:37:28.302Z,16.35
2017-04-14T04:38:28.082Z,17.62
2017-04-14T04:39:28.430Z,18.88
2017-04-14T04:40:28.230Z,18.92
2017-04-14T04:41:28.002Z,19.25
2017-04-14T04:42:27.766Z,16.78
2017-04-14T04:43:28.339Z,15.87
2017-04-14T04:44:28.147Z,16.72
2017-04-14T04:45:27.931Z,20.13
2017-04-14T04:46:27.718Z,18.48
2017-04-14T04:47:27.490Z,18.80
2017-04-14T04:48:28.414Z,19.47
2017-04-14T04:49:28.419Z,19.20
2017-04-14T04:50:28.954Z,19.67
2017-04-14T04:51:28.978Z,18.03
2017-04-14T04:52:28.746Z,19.95
2017-04-14T04:53:29.282Z,20.25
2017-04-14T04:54:29.046Z,19.75
2017-04-14T04:55:29.066Z,19.00
2017-04-14T04:56:28.838Z,18.50
2017-04-14T04:57:28.614Z,16.48
2017-04-14T04:58:28.386Z,17.53
2017-04-14T04:59:28.907Z,19.47
2017-04-14T05:00:29.430Z,16.78
2017-04-14T05:01:29.938Z,17.95
2017-04-14T05:02:29.719Z,18.35
2017-04-14T05:03:29.517Z,19.83
2017-04-14T05:04:30.045Z,19.47
2017-04-14T05:05:29.862Z,18.27
2017-04-14T05:06:30.362Z,20.98
2017-04-14T05:07:30.218Z,19.65
2017-04-14T05:08:30.029Z,19.40
2017-04-14T05:09:29.858Z,18.25
2017-04-14T05:10:29.642Z,17.70
2017-04-14T05:11:29.450Z,19.00
2017-04-14T05:12:29.210Z,17.80
2017-04-14T05:13:28.991Z,18.25
2017-04-14T05:14:29.618Z,18.02
2017-04-14T05:15:30.246Z,18.60
2017-04-14T05:16:30.762Z,17.23
2017-04-14T05:17:31.242Z,18.35
2017-04-14T05:18:31.050Z,18.05
2017-04-14T05:19:30.869Z,17.98
2017-04-14T05:20:31.378Z,16.98
2017-04-14T05:21:31.190Z,16.32
2017-04-14T05:22:30.962Z,17.75
2017-04-14T05:23:31.695Z,17.65
2017-04-14T05:24:31.475Z,17.73
2017-04-14T05:25:31.386Z,17.15
2017-04-14T05:26:31.274Z,18.25
2017-04-14T05:27:31.266Z,18.32
2017-04-14T05:28:31.115Z,18.07
2017-04-14T05:29:31.994Z,19.60
2017-04-14T05:30:31.873Z,17.58
2017-04-14T05:31:32.550Z,17.78
2017-04-14T05:32:33.108Z,17.35
2017-04-14T05:33:32.886Z,18.78
2017-04-14T05:34:32.964Z,18.93
2017-04-14T05:35:32.794Z,19.00
2017-04-14T05:36:32.573Z,17.37
2017-04-14T05:37:32.353Z,17.40
2017-04-14T05:38:32.146Z,18.37
2017-04-14T05:39:31.998Z,17.02
2017-04-14T05:40:31.909Z,18.47
2017-04-14T05:41:31.790Z,18.50
2017-04-14T05:42:31.526Z,19.60
2017-04-14T05:43:32.054Z,18.32
2017-04-14T05:44:31.847Z,19.67
2017-04-14T05:45:31.650Z,21.25
2017-04-14T05:46:31.438Z,19.13
2017-04-14T05:47:31.249Z,21.42
2017-04-14T05:48:31.031Z,21.70
2017-04-14T05:49:30.922Z,18.25
2017-04-14T05:50:30.777Z,20.95
2017-04-14T05:51:30.558Z,20.65
2017-04-14T05:52:30.778Z,21.77
2017-04-14T05:53:32.194Z,20.05
2017-04-14T05:54:31.949Z,19.63
2017-04-14T05:55:32.174Z,20.27
2017-04-14T05:56:32.010Z,23.00
2017-04-14T05:57:31.764Z,21.22
2017-04-14T05:58:31.529Z,21.87
2017-04-14T05:59:31.329Z,19.33
2017-04-14T06:00:31.181Z,19.73
2017-04-14T06:01:30.974Z,20.55
2017-04-14T06:02:30.846Z,20.27
2017-04-14T06:03:31.834Z,18.33
2017-04-14T06:04:31.614Z,18.62
2017-04-14T06:05:31.434Z,18.38
2017-04-14T06:06:31.333Z,20.65
2017-04-14T06:07:31.105Z,20.18
2017-04-14T06:08:30.918Z,19.22
2017-04-14T06:09:30.821Z,19.83
2017-04-14T06:10:30.598Z,18.83
2017-04-14T06:11:31.133Z,18.77
2017-04-14T06:12:30.987Z,19.15
2017-04-14T06:13:30.875Z,20.28
2017-04-14T06:14:30.769Z,20.30
2017-04-14T06:15:30.537Z,17.93
2017-04-14T06:16:30.338Z,18.82
2017-04-14T06:17:30.130Z,20.20
2017-04-14T06:18:30.681Z,18.10
2017-04-14T06:19:30.591Z,18.43
2017-04-14T06:20:30.438Z,18.85
2017-04-14T06:21:30.322Z,18.77
2017-04-14T06:22:30.153Z,20.22
2017-04-14T06:23:30.730Z,19.97
2017-04-14T06:24:30.521Z,19.35
2017-04-14T06:25:30.506Z,18.95
2017-04-14T06:26:30.313Z,19.17
2017-04-14T06:27:30.093Z,18.85
2017-04-14T06:28:29.945Z,19.18
2017-04-14T06:29:29.773Z,18.08
2017-04-14T06:30:29.625Z,18.58
2017-04-14T06:31:29.433Z,18.55
2017-04-14T06:32:29.430Z,17.77
2017-04-14T06:33:29.201Z,18.15
2017-04-14T06:34:29.745Z,19.17
2017-04-14T06:35:30.910Z,17.87
2017-04-14T06:36:31.277Z,17.62
2017-04-14T06:37:31.829Z,18.13
2017-04-14T06:38:31.774Z,18.70
2017-04-14T06:39:31.549Z,17.60
2017-04-14T06:40:31.349Z,17.97
2017-04-14T06:41:31.183Z,17.45
2017-04-14T06:42:30.993Z,17.92
2017-04-14T06:43:30.813Z,18.38
2017-04-14T06:44:31.326Z,17.73
2017-04-14T06:45:31.870Z,19.32
2017-04-14T06:46:31.633Z,18.25
2017-04-14T06:47:31.417Z,18.68
2017-04-14T06:48:31.212Z,18.35
2017-04-14T06:49:31.001Z,19.08
2017-04-14T06:50:30.761Z,17.00
2017-04-14T06:51:30.589Z,18.52
2017-04-14T06:52:30.425Z,17.40
2017-04-14T06:53:30.207Z,17.95
2017-04-14T06:54:36.449Z,19.10
2017-04-14T06:55:36.221Z,16.33
2017-04-14T06:56:36.041Z,17.75
2017-04-14T06:57:35.829Z,18.03
2017-04-14T06:58:35.704Z,17.35
2017-04-14T06:59:35.481Z,18.40
2017-04-14T07:00:35.281Z,18.02
2017-04-14T07:01:35.145Z,19.43
2017-04-14T07:02:35.001Z,20.23
2017-04-14T07:03:34.777Z,18.82
2017-04-14T07:04:34.581Z,18.25
2017-04-14T07:05:34.381Z,19.28
2017-04-14T07:06:34.188Z,17.23
2017-04-14T07:07:33.944Z,19.65
2017-04-14T07:08:33.712Z,17.47
2017-04-14T07:09:33.509Z,17.03
2017-04-14T07:10:33.276Z,18.02
2017-04-14T07:11:33.041Z,19.25
2017-04-14T07:12:32.793Z,19.00
2017-04-14T07:13:32.568Z,19.52
2017-04-14T07:14:32.541Z,19.27
2017-04-14T07:15:33.064Z,19.07
2017-04-14T07:16:33.583Z,17.90
2017-04-14T07:17:33.564Z,17.60
2017-04-14T07:18:33.321Z,19.85
2017-04-14T07:19:33.138Z,19.70
2017-04-14T07:20:32.876Z,18.57
2017-04-14T07:21:33.440Z,18.65
2017-04-14T07:22:33.456Z,20.35
2017-04-14T07:23:33.576Z,19.97
2017-04-14T07:24:33.332Z,21.58
2017-04-14T07:25:33.864Z,21.15
2017-04-14T07:26:33.659Z,19.47
2017-04-14T07:27:33.460Z,21.17
2017-04-14T07:28:33.237Z,21.53
2017-04-14T07:29:32.997Z,21.33
2017-04-14T07:30:32.776Z,22.72
2017-04-14T07:31:32.556Z,21.93
2017-04-14T07:32:32.332Z,21.47
2017-04-14T07:33:32.101Z,20.22
2017-04-14T07:34:32.083Z,21.52
2017-04-14T07:35:31.824Z,20.22
2017-04-14T07:36:31.612Z,19.73
2017-04-14T07:37:31.740Z,19.95
2017-04-14T07:38:31.532Z,20.95
2017-04-14T07:39:31.312Z,21.20
2017-04-14T07:40:31.088Z,20.18
2017-04-14T07:41:30.852Z,21.28
2017-04-14T07:42:30.636Z,21.02
2017-04-14T07:43:30.428Z,20.53
2017-04-14T07:44:30.212Z,22.60
2017-04-14T07:45:30.036Z,22.08
2017-04-14T07:46:29.764Z,21.65
2017-04-14T07:47:29.544Z,21.40
2017-04-14T07:48:29.340Z,21.48
2017-04-14T07:49:29.152Z,20.33
2017-04-14T07:50:28.925Z,22.62
2017-04-14T07:51:28.707Z,21.30
2017-04-14T07:52:28.476Z,21.53
2017-04-14T07:53:28.244Z,21.23
2017-04-14T07:54:28.007Z,20.47
2017-04-14T07:55:27.792Z,19.08
2017-04-14T07:56:28.280Z,22.20
2017-04-14T07:57:28.080Z,20.65
2017-04-14T07:58:27.864Z,20.07
2017-04-14T07:59:27.712Z,21.83
2017-04-14T08:00:28.224Z,20.85
2017-04-14T08:01:28.015Z,20.65
2017-04-14T08:02:28.956Z,20.43
2017-04-14T08:03:29.483Z,22.42
2017-04-14T08:04:29.259Z,20.38
2017-04-14T08:05:29.044Z,21.33
2017-04-14T08:06:28.835Z,22.53
2017-04-14T08:07:28.596Z,20.40
2017-04-14T08:08:28.368Z,19.83
2017-04-14T08:09:28.180Z,19.95
2017-04-14T08:10:30.512Z,20.97
2017-04-14T08:11:30.352Z,17.88
2017-04-14T08:12:30.864Z,18.62
2017-04-14T08:13:31.392Z,19.20
2017-04-14T08:14:31.292Z,18.93
2017-04-14T08:15:31.867Z,19.53
2017-04-14T08:16:31.649Z,18.72
2017-04-14T08:17:31.534Z,18.97
2017-04-14T08:18:31.352Z,18.87
2017-04-14T08:19:31.280Z,18.97
2017-04-14T08:20:31.060Z,16.27
2017-04-14T08:21:30.848Z,16.95
2017-04-14T08:22:30.596Z,16.60
2017-04-14T08:23:30.384Z,16.92
2017-04-14T08:24:30.232Z,17.82
2017-04-14T08:25:30.799Z,18.05
2017-04-14T08:26:30.615Z,17.35
2017-04-14T08:27:30.372Z,16.75
2017-04-14T08:28:30.180Z,18.25
2017-04-14T08:29:30.000Z,18.82
2017-04-14T08:30:29.811Z,17.08
2017-04-14T08:31:29.584Z,18.67
2017-04-14T08:32:29.371Z,16.23
2017-04-14T08:33:29.147Z,17.02
2017-04-14T08:34:28.924Z,19.03
2017-04-14T08:35:28.972Z,18.05
2017-04-14T08:36:28.759Z,19.23
2017-04-14T08:37:28.527Z,17.77
2017-04-14T08:38:28.592Z,18.30
2017-04-14T08:39:28.700Z,17.68
2017-04-14T08:40:28.503Z,18.47
2017-04-14T08:41:28.291Z,18.65
2017-04-14T08:42:28.843Z,17.42
2017-04-14T08:43:28.621Z,17.15
2017-04-14T08:44:29.147Z,16.67
2017-04-14T08:45:28.952Z,16.65
2017-04-14T08:46:28.803Z,16.52
2017-04-14T08:47:28.579Z,16.90
2017-04-14T08:48:28.351Z,16.50
2017-04-14T08:49:28.131Z,18.03
2017-04-14T08:50:27.931Z,17.57
2017-04-14T08:51:27.931Z,19.08
2017-04-14T08:52:27.844Z,17.05
2017-04-14T08:53:27.647Z,17.38
2017-04-14T08:54:27.424Z,17.18
2017-04-14T08:55:27.199Z,16.60
2017-04-14T08:56:26.963Z,18.22
2017-04-14T08:57:26.763Z,17.17
2017-04-14T08:58:27.284Z,18.22
2017-04-14T08:59:27.803Z,16.08
2017-04-14T09:00:28.343Z,17.28
2017-04-14T09:01:28.141Z,17.15
2017-04-14T09:02:27.948Z,18.75
2017-04-14T09:03:27.727Z,18.30
2017-04-14T09:04:28.243Z,17.83
2017-04-14T09:05:28.755Z,18.73
2017-04-14T09:06:29.367Z,17.73
2017-04-14T09:07:29.142Z,17.80
2017-04-14T09:08:28.927Z,17.35
2017-04-14T09:09:28.727Z,16.75
2017-04-14T09:10:28.743Z,17.25
2017-04-14T09:11:28.544Z,15.98
2017-04-14T09:12:28.315Z,16.10
2017-04-14T09:13:28.110Z,16.65
2017-04-14T09:14:27.900Z,16.67
2017-04-14T09:15:29.058Z,16.83
2017-04-14T09:16:29.000Z,15.97
2017-04-14T09:17:28.762Z,16.50
2017-04-14T09:18:36.696Z,16.25
2017-04-14T09:19:36.671Z,16.93
2017-04-14T09:20:36.446Z,15.88
2017-04-14T09:21:37.098Z,15.52
2017-04-14T09:22:36.931Z,15.92
2017-04-14T09:23:36.751Z,15.20
2017-04-14T09:24:37.255Z,15.08
2017-04-14T09:25:37.059Z,15.80
2017-04-14T09:26:37.242Z,15.08
2017-04-14T09:27:36.850Z,15.37
2017-04-14T09:28:36.643Z,15.95
2017-04-14T09:29:36.411Z,14.20
2017-04-14T09:30:36.179Z,14.37
2017-04-14T09:31:35.946Z,13.50
2017-04-14T09:32:35.723Z,14.58
2017-04-14T09:33:35.519Z,14.40
2017-04-14T09:34:35.530Z,13.85
2017-04-14T09:35:35.288Z,13.45
2017-04-14T09:36:35.058Z,13.07
2017-04-14T09:37:34.911Z,14.22
2017-04-14T09:38:35.486Z,14.65
2017-04-14T09:39:35.251Z,14.97
2017-04-14T09:40:35.010Z,13.55
2017-04-14T09:41:34.782Z,14.30
2017-04-14T09:42:34.567Z,13.00
2017-04-14T09:43:34.412Z,13.77
2017-04-14T09:44:35.182Z,13.53
2017-04-14T09:45:34.998Z,13.53
2017-04-14T09:46:35.570Z,14.15
2017-04-14T09:48:41.870Z,14.88
2017-04-14T09:49:41.658Z,14.47
2017-04-14T09:50:41.426Z,13.15
2017-04-14T09:51:41.198Z,14.08
2017-04-14T09:52:40.942Z,14.77
2017-04-14T09:53:41.462Z,13.70
2017-04-14T09:54:42.311Z,15.75
2017-04-14T09:55:42.079Z,14.75
2017-04-14T09:56:41.882Z,13.93
2017-04-14T09:57:41.679Z,15.50
2017-04-14T09:58:41.834Z,15.15
2017-04-14T09:59:42.258Z,14.40
2017-04-14T10:00:42.058Z,13.98
2017-04-14T10:01:41.842Z,14.25
2017-04-14T10:02:41.611Z,13.18
2017-04-14T10:03:41.391Z,14.10
2017-04-14T10:04:41.191Z,13.13
2017-04-14T10:05:41.014Z,14.53
2017-04-14T10:06:41.038Z,14.63
2017-04-14T10:07:41.060Z,14.65
2017-04-14T10:09:42.742Z,13.97
2017-04-14T10:10:42.586Z,13.03
2017-04-14T10:11:42.358Z,13.50
2017-04-14T10:12:42.115Z,14.43
2017-04-14T10:13:42.066Z,14.10
2017-04-14T10:14:41.846Z,13.93
2017-04-14T10:15:41.683Z,13.08
2017-04-14T10:16:42.694Z,13.50
2017-04-14T10:17:42.699Z,13.48
2017-04-14T10:18:42.658Z,13.42
2017-04-14T10:19:43.187Z,12.93
2017-04-14T10:20:42.974Z,14.70
2017-04-14T10:21:43.490Z,14.10
2017-04-14T10:22:43.986Z,14.87
2017-04-14T10:23:43.762Z,14.27
2017-04-14T10:24:43.562Z,15.20
2017-04-14T10:25:43.382Z,15.62
2017-04-14T10:26:43.166Z,14.62
2017-04-14T10:27:42.973Z,13.78
2017-04-14T10:28:42.796Z,15.12
2017-04-14T10:29:42.534Z,15.50
2017-04-14T10:30:43.194Z,15.57
2017-04-14T10:31:42.930Z,16.35
2017-04-14T10:32:42.694Z,16.33
2017-04-14T10:33:42.474Z,14.23
2017-04-14T10:34:42.250Z,14.72
2017-04-14T10:35:43.638Z,16.60
2017-04-14T10:36:43.435Z,16.47
2017-04-14T10:37:43.322Z,15.87
2017-04-14T10:38:43.105Z,15.35
2017-04-14T10:39:42.894Z,15.85
2017-04-14T10:40:42.666Z,16.03
2017-04-14T10:41:42.418Z,15.28
2017-04-14T10:42:42.215Z,16.27
2017-04-14T10:43:42.003Z,14.58
2017-04-14T10:44:42.493Z,14.87
2017-04-14T10:45:42.306Z,15.20
2017-04-14T10:46:42.122Z,14.78
2017-04-14T10:47:42.414Z,14.25
2017-04-14T10:48:42.194Z,16.05
2017-04-14T10:49:41.970Z,15.28
2017-04-14T10:50:41.741Z,16.42
2017-04-14T10:51:41.526Z,15.10
2017-04-14T10:52:41.289Z,16.00
2017-04-14T10:53:41.090Z,15.23
2017-04-14T10:54:40.846Z,15.08
2017-04-14T10:55:40.609Z,15.90
2017-04-14T10:56:40.383Z,15.78
2017-04-14T10:57:40.194Z,16.63
2017-04-14T10:58:40.462Z,15.52
2017-04-14T10:59:40.262Z,15.73
2017-04-14T11:00:40.793Z,15.90
2017-04-14T11:01:40.678Z,18.05
2017-04-14T11:02:40.558Z,16.42
2017-04-14T11:03:40.306Z,16.62
2017-04-14T11:04:40.094Z,17.15
2017-04-14T11:05:39.877Z,16.60
2017-04-14T11:06:41.970Z,16.90
2017-04-14T11:07:41.746Z,16.07
2017-04-14T11:08:42.270Z,15.20
2017-04-14T11:09:42.037Z,15.98
2017-04-14T11:10:42.214Z,16.15
2017-04-14T11:11:41.998Z,15.22
2017-04-14T11:12:41.817Z,14.15
2017-04-14T11:13:41.566Z,14.17
2017-04-14T11:14:41.377Z,13.22
2017-04-14T11:15:41.910Z,13.22
2017-04-14T11:16:41.689Z,14.00
2017-04-14T11:17:41.470Z,14.20
2017-04-14T11:18:41.370Z,13.00
2017-04-14T11:19:41.117Z,14.57
2017-04-14T11:20:40.885Z,15.47
2017-04-14T11:21:40.677Z,15.05
2017-04-14T11:22:40.466Z,14.85
2017-04-14T11:23:40.239Z,14.18
2017-04-14T11:24:39.993Z,14.77
2017-04-14T11:25:39.797Z,16.75
2017-04-14T11:26:40.315Z,14.75
2017-04-14T11:27:40.074Z,14.83
2017-04-14T11:28:39.853Z,14.32
2017-04-14T11:29:39.937Z,14.88
2017-04-14T11:30:40.457Z,12.83
2017-04-14T11:31:40.966Z,13.18
2017-04-14T11:32:41.106Z,13.27
2017-04-14T11:33:41.509Z,14.07
2017-04-14T11:34:41.287Z,15.07
2017-04-14T11:35:41.081Z,14.02
2017-04-14T11:36:41.253Z,14.05
2017-04-14T11:37:41.038Z,14.25
2017-04-14T11:38:40.827Z,13.62
2017-04-14T11:39:40.612Z,14.08
2017-04-14T11:40:40.361Z,14.58
2017-04-14T11:41:40.154Z,14.93
2017-04-14T11:42:39.974Z,14.45
2017-04-14T11:43:39.790Z,14.42
2017-04-14T11:44:39.581Z,12.37
2017-04-14T11:45:39.349Z,13.73
2017-04-14T11:46:39.115Z,12.83
2017-04-14T11:47:38.950Z,12.80
2017-04-14T11:48:38.717Z,13.07
2017-04-14T11:49:38.517Z,15.12
2017-04-14T11:50:38.301Z,14.35
2017-04-14T11:51:38.089Z,14.82
2017-04-14T11:52:37.866Z,13.75
2017-04-14T11:53:38.409Z,13.55
2017-04-14T11:54:38.184Z,14.65
2017-04-14T11:55:38.018Z,15.37
2017-04-14T11:56:37.818Z,14.40
2017-04-14T11:57:37.617Z,14.05
2017-04-14T11:58:37.405Z,14.48
2017-04-14T11:59:37.217Z,14.88
2017-04-14T12:00:37.569Z,15.43
2017-04-14T12:01:38.073Z,14.73
2017-04-14T12:02:37.917Z,15.20
2017-04-14T12:03:37.717Z,16.23
2017-04-14T12:04:37.505Z,15.70
2017-04-14T12:05:37.341Z,14.60
2017-04-14T12:06:37.125Z,15.27
2017-04-14T12:07:36.889Z,15.32
2017-04-14T12:08:36.677Z,14.27
2017-04-14T12:09:36.506Z,15.98
2017-04-14T12:10:37.145Z,15.18
2017-04-14T12:11:37.665Z,14.77
2017-04-14T12:12:38.180Z,15.65
2017-04-14T12:13:37.979Z,15.70
2017-04-14T12:14:37.789Z,16.43
2017-04-14T12:15:37.613Z,15.02
2017-04-14T12:16:37.453Z,14.68
2017-04-14T12:17:37.249Z,15.03
2017-04-14T12:18:37.041Z,16.42
2017-04-14T12:19:37.268Z,16.38
2017-04-14T12:20:43.464Z,16.78
2017-04-14T12:21:43.244Z,16.95
2017-04-14T12:22:43.780Z,16.30
2017-04-14T12:23:43.560Z,15.40
2017-04-14T12:24:44.104Z,15.98
2017-04-14T12:25:43.893Z,15.68
2017-04-14T12:26:44.493Z,16.00
2017-04-14T12:27:44.340Z,15.40
2017-04-14T12:28:44.161Z,16.05
2017-04-14T12:29:43.940Z,14.80
2017-04-14T12:30:43.724Z,15.63
2017-04-14T12:31:44.261Z,14.55
2017-04-14T12:32:44.061Z,15.10
2017-04-14T12:33:43.844Z,14.30
2017-04-14T12:34:44.297Z,14.18
2017-04-14T12:35:45.113Z,13.68
2017-04-14T12:36:44.932Z,14.53
2017-04-14T12:37:44.708Z,14.43
2017-04-14T12:38:44.512Z,13.45
2017-04-14T12:39:44.285Z,13.77
2017-04-14T12:40:44.076Z,14.05
2017-04-14T12:41:43.868Z,15.13
2017-04-14T12:42:43.765Z,14.02
2017-04-14T12:43:43.568Z,13.05
2017-04-14T12:44:43.456Z,14.27
2017-04-14T12:45:43.289Z,15.28
2017-04-14T12:46:43.084Z,13.55
2017-04-14T12:47:43.612Z,13.12
2017-04-14T12:48:43.417Z,12.15
2017-04-14T12:49:43.189Z,14.10
2017-04-14T12:50:42.992Z,13.05
2017-04-14T12:51:42.852Z,13.42
2017-04-14T12:52:42.729Z,13.58
2017-04-14T12:53:42.532Z,13.68
2017-04-14T12:54:43.109Z,13.38